Ocracoke, NC

8:26 AM EDT on July 23, 2014 (GMT -0400)
Piney Island (KNBT) Elev 16 ft | 35.02 °N, 76.46 °W | Change Station

Current weather conditions updated 20 minutes ago

Mostly Cloudy
Mostly Cloudy
78 °F
Feels Like 78 °F
N
7
Wind Variable Wind from West

Today is forecast to be nearly the same temperature as yesterday. Thunderstorms.

Today
High -- | Low -- °F
--% Chance of Precip.
Yesterday
High -- | Low -- °F
Precip. -- in
6:06 AM 8:13 PM
Waning Crescent, 11% visible
Pressure 30.07 in
Visibility 8.0 miles
Clouds Mostly Cloudy 800 ft
Dew Point 77 °F
Humidity 96%
Rainfall 0.00 in
Snow Depth Not available.
UV 1 out of 12
Pollen 4.50 out of 12
Air Quality Not available.
Flu Activity Not available.
SPECI KNBT 231206Z AUTO 26006KT 8SM BKN008 26/25 A3007 RMK AO2 CIG 006V012 T02560250 PNO

More Conditions Fewer Conditions

Pressure 30.07 in
Visibility 8.0 miles
Clouds Mostly Cloudy 800 ft
Dew Point 77 °F
Humidity 96%
Rainfall 0.00 in
Snow Depth Not available.
UV 1 out of 12
Pollen 4.50 out of 12
Air Quality Not available.
Flu Activity Not available.
SPECI KNBT 231206Z AUTO 26006KT 8SM BKN008 26/25 A3007 RMK AO2 CIG 006V012 T02560250 PNO

More Conditions Fewer Conditions

10-Day Weather Forecast

Almanac

Astronomy

Jul. 23, 2014 Rise Set
Actual Time 6:06 AM EDT 8:13 PM EDT
Civil Twilight 5:37 AM EDT 8:42 PM EDT
Nautical Twilight 5:03 AM EDT 9:17 PM EDT
Astronomical Twilight 4:25 AM EDT 9:54 PM EDT
Moon 3:22 AM EDT 5:41 PM EDT
Length of Visible Light 15h 04m
Length of Day
14h 07m
Tomorrow will be 1m 24s shorter.
Waning Crescent, 11% of the Moon is Illuminated
Today
Waning Crescent
Jul 26
New
Aug 3
First Quarter
Aug 10
Full
Aug 17
Last Quarter

Today's Extremes

State Highs State Lows

Community

WunderPhotos

Upload Photos

1,736,579 photos uploaded!

Nearby

Snow Depth

Station Depth Elevation
No new snow has been reported.

Earthquake Activity

City Distance Mag. Time & Date
No recent earthquake activity has been reported nearby.
Minimum magnitude displayed is 2.5.

Coastal Water Temperatures

Place Temperature
Beaufort, NC 80.1 °F
Hatteras, NC 82.0 °F
Oregon Inlet Marina, NC 79.0 °F
Duck Pier, NC 73.0 °F
Johnny Mercer Pier, Wrightsville Beach, NC 82.9 °F

Nearby Weather Stations

Station Location Temp. Heat Index Dew Point Humidity Wind Precip. Elev Updated Type
The Ocracoke Harbor Inn/Silver Lake, Ocracoke, NC 79.1 °F 83 °F 76 °F 90% West  at  10.0 mph 0.00 in / hr 15 ft 8:26 AM EDT Rapid Fire
Sandbaggas, Hatteras, NC 81.3 °F 88 °F 76 °F 83% West  at  4.2 mph - / hr 16 ft 8:25 AM EDT Normal
RAWS CEDAR ISLAND NC, Cedar Island, NC 77 °F 78 °F 76 °F 97% North  at  0 mph 0.00 in / hr 2 ft 7:25 AM EDT MADIS
Frisco, NC, Hatteras, NC 79.9 °F 85 °F 76 °F 88% NE  at  0.0 mph 0.00 in / hr 55 ft 8:20 AM EDT Normal

Show More Stations Show Fewer Stations